createdAt,value
2023-09-09T00:00:52.457Z,3.20
2023-09-09T00:03:20.246Z,2.90
2023-09-09T00:05:47.790Z,3.10
2023-09-09T00:08:16.851Z,4.50
2023-09-09T00:10:43.817Z,4.80
2023-09-09T00:13:10.804Z,4.40
2023-09-09T00:15:38.132Z,4.50
2023-09-09T00:18:05.304Z,5.90
2023-09-09T00:20:35.299Z,3.90
2023-09-09T00:23:09.325Z,2.70
2023-09-09T00:25:40.151Z,3.00
2023-09-09T00:28:07.866Z,4.90
2023-09-09T00:30:35.430Z,3.40
2023-09-09T00:33:02.649Z,3.30
2023-09-09T00:35:30.982Z,3.00
2023-09-09T00:37:57.904Z,3.10
2023-09-09T00:40:25.125Z,4.90
2023-09-09T00:42:52.069Z,3.80
2023-09-09T00:45:20.655Z,4.40
2023-09-09T00:47:48.152Z,3.70
2023-09-09T00:50:15.448Z,3.10
2023-09-09T00:52:43.789Z,5.00
2023-09-09T00:55:12.513Z,5.30
2023-09-09T00:57:39.792Z,4.30
2023-09-09T01:00:13.633Z,2.80
2023-09-09T01:02:41.616Z,2.90
2023-09-09T01:05:09.693Z,2.50
2023-09-09T01:07:43.863Z,4.50
2023-09-09T01:10:11.176Z,2.70
2023-09-09T01:12:38.461Z,3.30
2023-09-09T01:15:07.562Z,3.30
2023-09-09T01:20:17.395Z,3.20
2023-09-09T01:22:45.864Z,3.80
2023-09-09T01:25:13.125Z,4.20
2023-09-09T01:27:40.328Z,3.40
2023-09-09T01:30:08.696Z,3.50
2023-09-09T01:32:36.231Z,2.50
2023-09-09T01:35:08.341Z,2.90
2023-09-09T01:37:35.691Z,5.50
2023-09-09T01:40:11.876Z,3.50
2023-09-09T01:42:39.406Z,3.30
2023-09-09T01:47:35.456Z,2.90
2023-09-09T01:50:03.855Z,4.30
2023-09-09T01:52:31.172Z,5.30
2023-09-09T01:54:58.476Z,3.30
2023-09-09T01:57:28.250Z,4.70
2023-09-09T01:59:55.835Z,3.10
2023-09-09T02:02:23.425Z,3.80
2023-09-09T02:04:50.597Z,4.80
2023-09-09T02:07:17.637Z,4.30
2023-09-09T02:09:44.836Z,3.70
2023-09-09T02:12:11.809Z,3.90
2023-09-09T02:14:38.825Z,3.00
2023-09-09T02:17:06.430Z,3.10
2023-09-09T02:19:33.575Z,2.70
2023-09-09T02:22:00.488Z,2.30
2023-09-09T02:24:27.496Z,3.60
2023-09-09T02:26:54.775Z,3.50
2023-09-09T02:29:22.401Z,3.40
2023-09-09T02:31:49.509Z,4.80
2023-09-09T02:34:16.529Z,3.10
2023-09-09T02:36:45.244Z,3.80
2023-09-09T02:39:12.328Z,3.20
2023-09-09T02:41:39.412Z,3.60
2023-09-09T02:44:06.860Z,2.80
2023-09-09T02:46:34.152Z,3.20
2023-09-09T02:49:01.599Z,4.60
2023-09-09T02:51:28.821Z,2.80
2023-09-09T02:53:55.837Z,3.80
2023-09-09T02:56:23.126Z,4.60
2023-09-09T02:58:50.199Z,3.40
2023-09-09T03:01:17.397Z,5.10
2023-09-09T03:03:44.753Z,3.60
2023-09-09T03:06:12.243Z,4.20
2023-09-09T03:08:39.483Z,5.80
2023-09-09T03:11:06.529Z,5.90
2023-09-09T03:13:35.242Z,4.90
2023-09-09T03:16:02.661Z,2.10
2023-09-09T03:18:30.633Z,2.90
2023-09-09T03:20:57.787Z,4.40
2023-09-09T03:23:24.862Z,3.60
2023-09-09T03:25:51.994Z,3.90
2023-09-09T03:28:19.063Z,2.90
2023-09-09T03:30:54.209Z,3.90
2023-09-09T03:33:22.709Z,5.30
2023-09-09T03:35:50.331Z,3.70
2023-09-09T03:38:17.761Z,4.90
2023-09-09T03:40:44.812Z,4.50
2023-09-09T03:43:15.469Z,4.50
2023-09-09T03:45:42.852Z,2.50
2023-09-09T03:48:10.211Z,2.30
2023-09-09T03:50:37.405Z,3.50
2023-09-09T03:53:04.829Z,3.20
2023-09-09T03:55:32.018Z,5.20
2023-09-09T03:57:59.020Z,4.40
2023-09-09T04:00:26.420Z,4.40
2023-09-09T04:02:54.100Z,2.90
2023-09-09T04:05:21.678Z,3.60
2023-09-09T04:07:48.895Z,3.80
2023-09-09T04:10:17.482Z,3.80
2023-09-09T04:12:44.760Z,3.50
2023-09-09T04:15:12.077Z,4.30
2023-09-09T04:17:41.716Z,2.50
2023-09-09T04:20:11.929Z,4.60
2023-09-09T04:22:40.063Z,4.10
2023-09-09T04:25:08.850Z,3.40
2023-09-09T04:27:36.368Z,3.20
2023-09-09T04:30:04.147Z,4.20
2023-09-09T04:32:33.357Z,4.40
2023-09-09T04:35:00.841Z,7.20
2023-09-09T04:37:29.327Z,4.90
2023-09-09T04:39:56.567Z,7.10
2023-09-09T04:42:24.952Z,11.70
2023-09-09T04:44:52.068Z,16.70
2023-09-09T04:47:19.484Z,24.10
2023-09-09T04:49:47.558Z,26.80
2023-09-09T04:52:14.673Z,26.90
2023-09-09T04:54:44.257Z,30.00
2023-09-09T04:57:12.134Z,23.00
2023-09-09T04:59:39.894Z,15.10
2023-09-09T05:02:07.133Z,15.70
2023-09-09T05:04:34.267Z,18.20
2023-09-09T05:07:03.594Z,23.10
2023-09-09T05:09:30.542Z,21.70
2023-09-09T05:11:57.793Z,24.30
2023-09-09T05:14:24.865Z,26.70
2023-09-09T05:16:52.283Z,26.90
2023-09-09T05:19:19.649Z,28.60
2023-09-09T05:21:47.068Z,21.60
2023-09-09T05:24:13.978Z,13.60
2023-09-09T05:26:40.840Z,10.30
2023-09-09T05:30:12.252Z,9.40
2023-09-09T05:32:40.320Z,7.60
2023-09-09T05:35:08.306Z,8.20
2023-09-09T05:37:35.437Z,9.30
2023-09-09T05:40:04.378Z,10.90
2023-09-09T05:42:32.304Z,7.40
2023-09-09T05:44:59.950Z,8.80
2023-09-09T05:47:27.251Z,7.00
2023-09-09T05:49:55.017Z,4.90
2023-09-09T05:52:22.404Z,5.30
2023-09-09T05:54:49.670Z,5.30
2023-09-09T05:57:16.609Z,4.10
2023-09-09T05:59:44.138Z,4.50
2023-09-09T06:02:12.967Z,5.60
2023-09-09T06:04:40.140Z,5.50
2023-09-09T06:07:07.361Z,3.90
2023-09-09T06:09:34.593Z,5.60
2023-09-09T06:12:02.627Z,5.40
2023-09-09T06:14:30.242Z,4.20
2023-09-09T06:16:57.965Z,6.60
2023-09-09T06:19:25.267Z,6.30
2023-09-09T06:21:53.233Z,8.00
2023-09-09T06:24:20.989Z,4.60
2023-09-09T06:26:48.250Z,3.40
2023-09-09T06:29:15.469Z,2.80
2023-09-09T06:31:43.467Z,3.00
2023-09-09T06:34:12.085Z,6.20
2023-09-09T06:36:39.189Z,4.70
2023-09-09T06:39:06.412Z,2.10
2023-09-09T06:41:33.607Z,4.40
2023-09-09T06:44:00.798Z,3.00
2023-09-09T06:46:28.102Z,3.00
2023-09-09T06:48:55.146Z,8.20
2023-09-09T06:51:23.411Z,3.70
2023-09-09T06:53:52.154Z,3.20
2023-09-09T06:56:19.662Z,4.50
2023-09-09T06:58:46.645Z,2.80
2023-09-09T07:01:13.578Z,2.20
2023-09-09T07:03:41.746Z,9.50
2023-09-09T07:06:09.179Z,13.10
2023-09-09T07:08:40.879Z,6.30
2023-09-09T07:11:08.257Z,4.10
2023-09-09T07:13:35.570Z,5.10
2023-09-09T07:16:03.002Z,6.60
2023-09-09T07:18:30.490Z,4.40
2023-09-09T07:20:58.972Z,3.00
2023-09-09T07:23:25.938Z,3.30
2023-09-09T07:25:53.889Z,5.70
2023-09-09T07:28:21.023Z,5.80
2023-09-09T07:30:47.904Z,6.60
2023-09-09T07:33:14.929Z,5.60
2023-09-09T07:35:43.023Z,12.00
2023-09-09T07:38:10.279Z,4.50
2023-09-09T07:40:37.464Z,3.20
2023-09-09T07:43:04.705Z,4.00
2023-09-09T07:45:31.760Z,9.50
2023-09-09T07:47:58.803Z,7.40
2023-09-09T07:50:26.327Z,3.10
2023-09-09T07:52:53.410Z,3.30
2023-09-09T07:55:20.600Z,3.40
2023-09-09T07:57:47.754Z,4.50
2023-09-09T08:00:15.077Z,4.10
2023-09-09T08:02:42.087Z,2.50
2023-09-09T08:05:09.789Z,2.50
2023-09-09T08:07:36.745Z,2.90
2023-09-09T08:10:04.409Z,4.60
2023-09-09T08:12:32.113Z,1.80
2023-09-09T08:15:10.191Z,3.10
2023-09-09T08:17:37.359Z,1.80
2023-09-09T08:20:08.961Z,5.20
2023-09-09T08:22:36.506Z,5.10
2023-09-09T08:25:04.424Z,7.60
2023-09-09T08:27:31.586Z,8.70
2023-09-09T08:29:58.657Z,6.40
2023-09-09T08:32:25.789Z,4.50
2023-09-09T08:34:56.001Z,2.80
2023-09-09T08:37:23.293Z,2.10
2023-09-09T08:39:53.095Z,1.90
2023-09-09T08:42:42.189Z,7.50
2023-09-09T08:45:17.114Z,6.10
2023-09-09T08:47:44.252Z,2.70
2023-09-09T08:50:11.845Z,2.20
2023-09-09T08:52:38.909Z,3.40
2023-09-09T08:55:06.234Z,3.30
2023-09-09T08:57:33.846Z,3.10
2023-09-09T09:00:02.764Z,2.60
2023-09-09T09:02:30.652Z,5.60
2023-09-09T09:04:57.756Z,3.00
2023-09-09T09:07:25.292Z,2.70
2023-09-09T09:09:52.195Z,2.20
2023-09-09T09:12:19.137Z,1.80
2023-09-09T09:14:49.549Z,2.70
2023-09-09T09:17:17.717Z,2.50
2023-09-09T09:19:44.646Z,1.60
2023-09-09T09:22:14.498Z,2.20
2023-09-09T09:24:43.432Z,2.80
2023-09-09T09:29:41.778Z,2.10
2023-09-09T09:32:10.048Z,2.00
2023-09-09T09:34:37.167Z,2.20
2023-09-09T09:37:14.568Z,2.50
2023-09-09T09:39:41.717Z,2.60
2023-09-09T09:42:11.814Z,3.60
2023-09-09T09:44:39.202Z,9.00
2023-09-09T09:47:07.986Z,11.10
2023-09-09T09:49:43.373Z,5.80
2023-09-09T09:52:10.290Z,4.40
2023-09-09T09:54:37.968Z,8.90
2023-09-09T09:57:06.393Z,3.70
2023-09-09T09:59:35.185Z,3.20
2023-09-09T10:02:04.482Z,3.00
2023-09-09T10:04:40.213Z,3.20
2023-09-09T10:07:07.511Z,2.90
2023-09-09T10:10:01.765Z,3.80
2023-09-09T10:12:46.622Z,3.30
2023-09-09T10:15:17.215Z,2.60
2023-09-09T10:17:44.796Z,3.00
2023-09-09T10:20:12.355Z,2.60
2023-09-09T10:22:42.449Z,3.10
2023-09-09T10:25:12.215Z,3.40
2023-09-09T10:27:42.759Z,1.90
2023-09-09T10:30:11.006Z,5.80
2023-09-09T10:32:38.527Z,0.90
2023-09-09T10:35:09.239Z,1.70
2023-09-09T10:37:37.573Z,2.70
2023-09-09T10:40:07.249Z,2.50
2023-09-09T10:42:37.534Z,2.60
2023-09-09T10:45:30.934Z,1.60
2023-09-09T10:48:08.996Z,1.70
2023-09-09T10:50:46.399Z,3.30
2023-09-09T10:53:14.544Z,7.40
2023-09-09T10:55:43.004Z,2.60
2023-09-09T11:00:44.617Z,1.50
2023-09-09T11:03:16.446Z,1.90
2023-09-09T11:06:06.871Z,1.60
2023-09-09T11:08:37.114Z,1.60
2023-09-09T11:11:15.331Z,2.70
2023-09-09T11:13:50.438Z,0.90
2023-09-09T11:16:33.392Z,1.90
2023-09-09T11:19:12.133Z,1.20
2023-09-09T11:21:41.749Z,5.20
2023-09-09T11:24:09.350Z,7.00
2023-09-09T11:26:40.232Z,2.50
2023-09-09T11:29:12.354Z,1.90
2023-09-09T11:31:48.706Z,2.20
2023-09-09T11:34:16.218Z,2.40
2023-09-09T11:36:44.881Z,1.80
2023-09-09T11:39:12.110Z,2.30
2023-09-09T11:41:39.383Z,1.40
2023-09-09T11:44:07.701Z,1.30
2023-09-09T11:46:40.485Z,2.00
2023-09-09T11:49:07.574Z,1.70
2023-09-09T11:51:37.196Z,1.70
2023-09-09T11:54:04.996Z,2.00
2023-09-09T11:56:34.565Z,1.10
2023-09-09T11:59:11.521Z,1.70
2023-09-09T12:01:45.827Z,2.50
2023-09-09T12:04:14.163Z,1.70
2023-09-09T12:06:43.886Z,3.50
2023-09-09T12:09:11.053Z,2.00
2023-09-09T12:11:38.201Z,1.20
2023-09-09T12:14:05.346Z,2.40
2023-09-09T12:16:33.054Z,1.50
2023-09-09T12:19:00.292Z,1.00
2023-09-09T12:21:27.405Z,3.90
2023-09-09T12:23:59.567Z,2.80
2023-09-09T12:26:27.592Z,1.90
2023-09-09T12:29:11.896Z,1.30
2023-09-09T12:31:55.210Z,0.60
2023-09-09T12:34:23.001Z,5.80
2023-09-09T12:36:50.359Z,2.00
2023-09-09T12:39:24.920Z,0.90
2023-09-09T12:41:59.234Z,2.00
2023-09-09T12:44:26.520Z,1.20
2023-09-09T12:46:54.132Z,3.80
2023-09-09T12:49:21.112Z,2.40
2023-09-09T12:51:48.274Z,3.60
2023-09-09T12:54:15.449Z,3.60
2023-09-09T12:56:42.421Z,1.90
2023-09-09T12:59:09.565Z,1.70
2023-09-09T13:01:36.695Z,1.50
2023-09-09T13:04:03.864Z,4.60
2023-09-09T13:06:31.027Z,3.20
2023-09-09T13:08:58.214Z,3.10
2023-09-09T13:11:25.288Z,1.90
2023-09-09T13:14:01.394Z,3.60
2023-09-09T13:16:34.585Z,1.40
2023-09-09T13:19:01.806Z,2.30
2023-09-09T13:21:28.933Z,1.40
2023-09-09T13:23:56.774Z,1.80
2023-09-09T13:26:23.850Z,0.90
2023-09-09T13:28:51.073Z,1.20
2023-09-09T13:31:18.079Z,2.60
2023-09-09T13:33:45.632Z,3.00
2023-09-09T13:36:12.656Z,1.80
2023-09-09T13:38:39.593Z,7.90
2023-09-09T13:41:06.610Z,4.40
2023-09-09T13:43:33.479Z,2.20
2023-09-09T13:46:00.898Z,3.10
2023-09-09T13:48:28.195Z,1.90
2023-09-09T13:50:55.192Z,2.40
2023-09-09T13:53:22.177Z,1.80
2023-09-09T13:55:49.403Z,3.00
2023-09-09T13:58:16.596Z,2.20
2023-09-09T14:00:43.733Z,2.10
2023-09-09T14:03:10.901Z,2.10
2023-09-09T14:05:38.006Z,2.10
2023-09-09T14:08:05.386Z,3.00
2023-09-09T14:10:35.197Z,2.40
2023-09-09T14:13:02.033Z,1.90
2023-09-09T14:15:29.572Z,2.40
2023-09-09T14:17:56.666Z,1.50
2023-09-09T14:20:23.786Z,2.40
2023-09-09T14:22:51.473Z,3.30
2023-09-09T14:25:18.604Z,2.80
2023-09-09T14:27:45.579Z,1.80
2023-09-09T14:30:13.084Z,1.50
2023-09-09T14:32:40.584Z,2.80
2023-09-09T14:35:08.288Z,1.10
2023-09-09T14:37:35.339Z,4.90
2023-09-09T14:40:04.431Z,1.80
2023-09-09T14:42:31.570Z,3.60
2023-09-09T14:44:58.637Z,1.70
2023-09-09T14:47:25.623Z,2.90
2023-09-09T14:49:52.626Z,2.20
2023-09-09T14:52:19.627Z,2.30
2023-09-09T14:54:46.903Z,2.50
2023-09-09T14:57:14.115Z,3.90
2023-09-09T14:59:41.039Z,3.70
2023-09-09T15:02:08.222Z,2.30
2023-09-09T15:04:35.974Z,3.30
2023-09-09T15:07:04.914Z,3.40
2023-09-09T15:09:31.970Z,2.10
2023-09-09T15:11:58.989Z,4.70
2023-09-09T15:14:26.142Z,5.50
2023-09-09T15:16:58.201Z,6.40
2023-09-09T15:19:25.334Z,5.60
2023-09-09T15:21:52.868Z,5.20
2023-09-09T15:24:20.037Z,2.80
2023-09-09T15:26:47.038Z,4.90
2023-09-09T15:29:14.147Z,2.90
2023-09-09T15:31:41.388Z,2.60
2023-09-09T15:34:08.411Z,3.10
2023-09-09T15:36:35.518Z,3.90
2023-09-09T15:39:04.914Z,6.10
2023-09-09T15:41:32.086Z,3.90
2023-09-09T15:43:59.039Z,3.70
2023-09-09T15:46:26.198Z,3.90
2023-09-09T15:48:54.328Z,3.30
2023-09-09T15:51:22.964Z,3.90
2023-09-09T15:53:50.166Z,5.00
2023-09-09T15:56:17.322Z,3.50
2023-09-09T15:58:44.715Z,6.00
2023-09-09T16:01:12.142Z,3.00
2023-09-09T16:03:39.290Z,4.10
2023-09-09T16:06:08.623Z,3.80
2023-09-09T16:08:37.132Z,4.20
2023-09-09T16:11:05.239Z,3.70
2023-09-09T16:13:32.997Z,3.70
2023-09-09T16:16:06.711Z,6.50
2023-09-09T16:18:42.811Z,5.30
2023-09-09T16:21:09.917Z,5.90
2023-09-09T16:23:37.149Z,6.60
2023-09-09T16:26:05.597Z,6.60
2023-09-09T16:28:32.749Z,6.60
2023-09-09T16:31:05.207Z,5.70
2023-09-09T16:33:33.542Z,6.30
2023-09-09T16:36:07.129Z,5.50
2023-09-09T16:38:34.424Z,5.10
2023-09-09T16:41:01.777Z,5.00
2023-09-09T16:43:28.979Z,7.60
2023-09-09T16:45:56.828Z,4.10
2023-09-09T16:48:24.050Z,7.40
2023-09-09T16:50:51.164Z,5.50
2023-09-09T16:53:21.507Z,5.70
2023-09-09T16:55:49.898Z,7.50
2023-09-09T16:58:17.148Z,9.30
2023-09-09T17:00:44.461Z,7.90
2023-09-09T17:03:11.482Z,10.40
2023-09-09T17:05:45.176Z,10.40
2023-09-09T17:08:12.322Z,8.80
2023-09-09T17:10:40.630Z,12.50
2023-09-09T17:13:08.803Z,9.50
2023-09-09T17:15:35.961Z,12.80
2023-09-09T17:18:04.347Z,9.90
2023-09-09T17:20:31.489Z,11.30
2023-09-09T17:22:58.759Z,12.60
2023-09-09T17:25:25.832Z,16.00
2023-09-09T17:27:52.964Z,24.80
2023-09-09T17:30:20.717Z,25.30
2023-09-09T17:32:47.715Z,25.10
2023-09-09T17:35:14.903Z,20.10
2023-09-09T17:37:42.081Z,19.20
2023-09-09T17:40:09.969Z,27.00
2023-09-09T17:42:37.025Z,37.10
2023-09-09T17:45:05.040Z,54.60
2023-09-09T17:47:32.784Z,51.30
2023-09-09T17:50:00.500Z,50.70
2023-09-09T17:52:27.848Z,44.50
2023-09-09T17:54:55.359Z,47.40
2023-09-09T17:57:22.330Z,48.50
2023-09-09T17:59:49.475Z,60.90
2023-09-09T18:02:16.618Z,82.00
2023-09-09T18:04:43.713Z,84.50
2023-09-09T18:07:10.829Z,81.60
2023-09-09T18:09:38.050Z,77.60
2023-09-09T18:12:05.478Z,65.20
2023-09-09T18:14:34.626Z,53.80
2023-09-09T18:17:05.682Z,52.10
2023-09-09T18:19:34.771Z,56.80
2023-09-09T18:22:02.639Z,57.30
2023-09-09T18:24:30.791Z,59.80
2023-09-09T18:26:57.819Z,57.70
2023-09-09T18:29:25.833Z,63.20
2023-09-09T18:31:53.436Z,55.50
2023-09-09T18:34:20.510Z,58.20
2023-09-09T18:36:47.744Z,53.10
2023-09-09T18:39:15.040Z,50.60
2023-09-09T18:41:42.010Z,51.10
2023-09-09T18:44:09.121Z,50.40
2023-09-09T18:46:36.815Z,52.50
2023-09-09T18:49:04.004Z,44.50
2023-09-09T18:51:31.504Z,56.20
2023-09-09T18:53:59.080Z,52.30
2023-09-09T18:56:26.164Z,58.30
2023-09-09T18:58:53.415Z,60.30
2023-09-09T19:01:20.775Z,58.70
2023-09-09T19:03:48.143Z,64.20
2023-09-09T19:06:15.413Z,65.00
2023-09-09T19:08:42.555Z,60.70
2023-09-09T19:11:09.808Z,63.10
2023-09-09T19:13:37.191Z,64.00
2023-09-09T19:16:04.784Z,65.00
2023-09-09T19:18:32.137Z,68.40
2023-09-09T19:20:59.301Z,68.50
2023-09-09T19:23:27.050Z,70.80
2023-09-09T19:25:55.417Z,70.20
2023-09-09T19:28:22.497Z,69.50
2023-09-09T19:30:49.938Z,74.60
2023-09-09T19:33:17.956Z,75.10
2023-09-09T19:35:45.080Z,80.20
2023-09-09T19:38:12.223Z,72.70
2023-09-09T19:40:39.576Z,76.30
2023-09-09T19:43:08.749Z,83.00
2023-09-09T19:48:03.113Z,71.50
2023-09-09T19:50:30.542Z,77.60
2023-09-09T19:52:58.007Z,79.10
2023-09-09T19:55:25.168Z,81.90
2023-09-09T19:57:52.424Z,83.30
2023-09-09T20:00:19.647Z,78.50
2023-09-09T20:02:46.712Z,73.20
2023-09-09T20:05:14.040Z,72.10
2023-09-09T20:07:41.162Z,75.70
2023-09-09T20:10:12.056Z,69.70
2023-09-09T20:12:40.288Z,70.60
2023-09-09T20:15:07.856Z,72.90
2023-09-09T20:17:35.229Z,72.30
2023-09-09T20:20:02.478Z,67.80
2023-09-09T20:22:29.924Z,68.90
2023-09-09T20:24:57.172Z,65.40
2023-09-09T20:27:24.424Z,67.90
2023-09-09T20:29:51.384Z,70.10
2023-09-09T20:32:18.416Z,67.30
2023-09-09T20:34:51.046Z,71.20
2023-09-09T20:37:18.151Z,69.60
2023-09-09T20:39:45.145Z,64.80
2023-09-09T20:42:12.095Z,60.60
2023-09-09T20:44:39.104Z,56.40
2023-09-09T20:47:06.336Z,49.50
2023-09-09T20:49:33.460Z,54.60
2023-09-09T20:52:00.440Z,67.60
2023-09-09T20:54:27.362Z,63.50
2023-09-09T20:56:54.422Z,67.60
2023-09-09T20:59:21.266Z,64.20
2023-09-09T21:01:48.310Z,63.80
2023-09-09T21:04:15.548Z,71.80
2023-09-09T21:06:42.605Z,57.70
2023-09-09T21:09:09.552Z,52.70
2023-09-09T21:11:36.729Z,56.20
2023-09-09T21:14:03.858Z,50.00
2023-09-09T21:16:31.130Z,51.80
2023-09-09T21:18:58.551Z,52.00
2023-09-09T21:21:25.514Z,44.60
2023-09-09T21:23:52.817Z,49.80
2023-09-09T21:26:21.639Z,42.20
2023-09-09T21:28:48.840Z,40.00
2023-09-09T21:31:16.158Z,42.60
2023-09-09T21:33:43.639Z,38.60
2023-09-09T21:36:11.257Z,40.40
2023-09-09T21:38:40.454Z,38.90
2023-09-09T21:41:09.315Z,33.10
2023-09-09T21:43:36.543Z,36.40
2023-09-09T21:46:03.496Z,35.50
2023-09-09T21:48:30.707Z,33.40
2023-09-09T21:50:57.806Z,31.40
2023-09-09T21:53:25.634Z,32.40
2023-09-09T21:55:52.772Z,30.60
2023-09-09T21:58:21.342Z,28.30
2023-09-09T22:00:48.493Z,27.80
2023-09-09T22:03:15.746Z,29.50
2023-09-09T22:05:42.746Z,27.00
2023-09-09T22:08:09.902Z,27.10
2023-09-09T22:10:37.541Z,26.00
2023-09-09T22:13:04.807Z,26.80
2023-09-09T22:15:35.464Z,24.70
2023-09-09T22:18:02.639Z,23.70
2023-09-09T22:20:29.913Z,23.20
2023-09-09T22:22:57.001Z,26.80
2023-09-09T22:25:24.239Z,21.80
2023-09-09T22:27:51.210Z,25.30
2023-09-09T22:30:18.232Z,22.90
2023-09-09T22:32:45.607Z,19.30
2023-09-09T22:35:12.583Z,21.60
2023-09-09T22:37:40.703Z,23.30
2023-09-09T22:40:11.140Z,26.90
2023-09-09T22:42:38.199Z,27.10
2023-09-09T22:45:05.793Z,48.70
2023-09-09T22:47:32.907Z,92.90
2023-09-09T22:50:00.367Z,166.30
2023-09-09T22:52:27.456Z,198.40
2023-09-09T22:54:54.478Z,159.10
2023-09-09T22:57:21.684Z,96.50
2023-09-09T22:59:49.240Z,89.20
2023-09-09T23:02:17.212Z,77.50
2023-09-09T23:04:44.711Z,70.80
2023-09-09T23:07:12.021Z,75.40
2023-09-09T23:09:39.165Z,73.20
2023-09-09T23:12:06.640Z,72.10
2023-09-09T23:14:34.945Z,67.30
2023-09-09T23:17:03.820Z,60.90
2023-09-09T23:19:31.169Z,61.80
2023-09-09T23:21:58.185Z,79.80
2023-09-09T23:24:25.446Z,77.70
2023-09-09T23:26:52.362Z,92.50
2023-09-09T23:29:20.144Z,93.30
2023-09-09T23:31:47.199Z,98.20
2023-09-09T23:34:14.686Z,85.60
2023-09-09T23:36:41.803Z,74.50
2023-09-09T23:39:10.436Z,61.10
2023-09-09T23:41:37.559Z,55.70
2023-09-09T23:44:05.041Z,63.10
2023-09-09T23:46:32.803Z,56.20
2023-09-09T23:49:00.146Z,52.70
2023-09-09T23:51:27.439Z,49.50
2023-09-09T23:53:54.644Z,45.90
2023-09-09T23:56:21.681Z,38.00
2023-09-09T23:58:48.757Z,33.00
